Latest Weather Observations for Collie East

IDW60801

Issued at 9:05 pm WST Wednesday 17 September 2014 (issued every 30 minutes, with the page automatically refreshed every 10 minutes)

About weather observations | Map of weather stations | Latest weather observations for WA | Other Formats
Station Details ID: 009994 Name: COLLIE EAST Lat: -33.36 Lon: 116.17 Height: 200.0 m
Data from the previous 72 hours. | See also: Recent months at Collie East
Date/Time
WST
Temp
°C
App
Temp
°C
Dew
Point
Rel
Hum
%
Delta-T
°C
Wind Press
QNH
hPa
Press
MSL
hPa
Rain
since 9 am
mm
Dir
 
Spd
km/h
Gust
km/h
Spd
kts
Gust
kts
17/09:00pm 11.3 11.2 9.6 89 0.9 SE 0 0 0 0 - - 0.0
17/08:30pm 11.8 11.8 9.7 87 1.1 SE 0 0 0 0 - - 0.0
17/08:00pm 12.6 12.7 10.1 85 1.3 CALM 0 0 0 0 - - 0.0
17/07:30pm 13.7 13.9 10.7 82 1.6 CALM 0 0 0 0 - - 0.0
17/07:00pm 15.3 15.6 10.9 75 2.4 CALM 0 0 0 0 - - 0.0
17/06:30pm 17.1 16.5 10.5 65 3.6 ESE 4 7 2 4 - - 0.0
17/06:00pm 20.1 19.0 10.5 54 5.3 ESE 7 15 4 8 - - 0.0
17/05:30pm 21.5 20.3 10.3 49 6.2 ESE 7 11 4 6 - - 0.0
17/05:00pm 22.6 21.5 10.1 45 6.9 SE 6 9 3 5 - - 0.0
17/04:30pm 23.5 22.8 10.2 43 7.4 SSE 4 11 2 6 - - 0.0
17/04:00pm 23.3 22.1 10.4 44 7.2 SE 7 13 4 7 - - 0.0
17/03:30pm 23.8 22.7 10.1 42 7.6 SSE 6 11 3 6 - - 0.0
17/03:00pm 23.4 22.3 9.8 42 7.5 S 6 11 3 6 - - 0.0
17/02:30pm 23.0 21.8 10.4 45 7.0 SSE 7 11 4 6 - - 0.0
17/02:00pm 22.5 21.3 10.3 46 6.7 SE 7 13 4 7 - - 0.0
17/01:30pm 22.0 21.3 9.9 46 6.6 SE 4 9 2 5 - - 0.0
17/01:00pm 22.2 21.4 11.0 49 6.3 ESE 6 13 3 7 - - 0.0
17/12:30pm 21.5 21.1 11.2 52 5.7 SSE 4 9 2 5 - - 0.0
17/12:00pm 20.6 19.4 10.4 52 5.6 SE 7 13 4 7 - - 0.0
17/11:30am 19.4 18.8 10.4 56 4.9 S 4 9 2 5 - - 0.0
17/11:00am 18.9 18.8 10.7 59 4.5 SSE 2 7 1 4 - - 0.0
17/10:30am 18.0 18.2 10.4 61 4.1 CALM 0 6 0 3 - - 0.0
17/10:00am 16.1 15.2 9.1 63 3.6 E 4 11 2 6 - - 0.0
17/09:30am 14.9 13.5 8.8 67 3.1 SSE 6 9 3 5 - - 0.0
17/09:00am 12.9 11.3 8.0 72 2.4 ESE 6 11 3 6 - - 0.0
17/08:30am 11.5 10.3 8.2 80 1.6 S 4 7 2 4 - - 0.0
17/08:00am 9.2 8.1 6.8 85 1.1 SSE 2 9 1 5 - - 0.0
17/07:30am 8.1 6.6 7.0 93 0.5 SE 4 9 2 5 - - 0.0
17/07:00am 6.2 5.1 5.3 94 0.4 CALM 0 0 0 0 - - 0.0
17/06:30am 4.9 3.6 3.9 93 0.4 CALM 0 0 0 0 - - 0.0
17/06:00am 4.7 3.3 3.7 93 0.4 CALM 0 0 0 0 - - 0.0
17/05:30am 4.4 3.0 3.4 93 0.4 CALM 0 0 0 0 - - 0.0
17/05:00am 4.7 3.3 3.7 93 0.4 CALM 0 0 0 0 - - 0.0
17/04:30am 5.3 4.0 4.3 93 0.4 CALM 0 0 0 0 - - 0.0
17/04:00am 5.6 4.4 4.6 93 0.4 CALM 0 0 0 0 - - 0.0
17/03:30am 5.3 3.6 4.1 92 0.5 SE 2 7 1 4 - - 0.0
17/03:00am 5.6 3.6 4.4 92 0.5 SE 4 7 2 4 - - 0.0
17/02:30am 6.1 5.0 4.9 92 0.5 CALM 0 0 0 0 - - 0.0
17/02:00am 6.1 5.0 4.9 92 0.5 CALM 0 0 0 0 - - 0.0
17/01:30am 6.2 4.7 4.8 91 0.6 ESE 2 6 1 3 - - 0.0
17/01:00am 6.5 5.4 5.1 91 0.6 CALM 0 0 0 0 - - 0.0
17/12:30am 6.8 5.0 5.4 91 0.6 ESE 4 7 2 4 - - 0.0
17/12:00am 6.9 5.9 5.4 90 0.7 SE 0 0 0 0 - - 0.0
 
Date/Time
WST
Temp
°C
App
Temp
°C
Dew
Point
Rel
Hum
%
Delta-T
°C
Wind Press
QNH
hPa
Press
MSL
hPa
Rain
since 9 am
mm
Dir
 
Spd
km/h
Gust
km/h
Spd
kts
Gust
kts
16/11:30pm 7.5 5.4 6.0 90 0.7 SE 6 7 3 4 - - 0.0
16/11:00pm 7.3 6.3 5.4 88 0.9 CALM 0 0 0 0 - - 0.0
16/10:30pm 8.0 7.1 6.0 87 0.9 CALM 0 0 0 0 - - 0.0
16/10:00pm 8.4 7.5 6.2 86 1.0 CALM 0 0 0 0 - - 0.0
16/09:30pm 8.8 8.0 6.4 85 1.1 CALM 0 0 0 0 - - 0.0
16/09:00pm 9.8 8.8 7.4 85 1.2 SE 2 6 1 3 - - 0.0
16/08:30pm 10.5 9.1 7.2 80 1.6 SE 4 7 2 4 - - 0.0
16/08:00pm 11.3 9.6 7.4 77 1.9 ESE 6 9 3 5 - - 0.0
16/07:30pm 12.3 10.6 7.6 73 2.3 ESE 6 7 3 4 - - 0.0
16/07:00pm 13.0 11.4 8.1 72 2.4 ESE 6 7 3 4 - - 0.0
16/06:30pm 14.6 13.0 7.9 64 3.4 ESE 6 7 3 4 - - 0.0
16/06:00pm 16.8 14.9 7.7 55 4.6 ESE 7 11 4 6 - - 0.0
16/05:30pm 17.9 15.2 7.3 50 5.4 ESE 11 17 6 9 - - 0.0
16/05:00pm 18.7 16.1 7.8 49 5.6 ESE 11 20 6 11 - - 0.0
16/04:30pm 19.1 16.4 7.2 46 6.1 SE 11 20 6 11 - - 0.0
16/04:00pm 19.3 16.6 7.4 46 6.1 ESE 11 20 6 11 - - 0.0
16/03:30pm 19.5 16.9 7.6 46 6.1 ESE 11 20 6 11 - - 0.0
16/03:00pm 19.5 16.6 6.6 43 6.5 ESE 11 20 6 11 - - 0.0
16/02:30pm 19.4 16.7 7.2 45 6.2 ESE 11 20 6 11 - - 0.0
16/02:00pm 19.1 15.9 6.9 45 6.2 ESE 13 20 7 11 - - 0.0
16/01:30pm 19.5 16.5 7.9 47 6.0 E 13 24 7 13 - - 0.0
16/01:00pm 18.7 15.4 6.2 44 6.2 E 13 24 7 13 - - 0.0
16/12:30pm 18.1 14.1 4.7 41 6.5 ESE 15 26 8 14 - - 0.0
16/12:00pm 17.9 14.5 6.1 46 5.9 ESE 13 20 7 11 - - 0.0
16/11:30am 17.2 13.5 6.4 49 5.4 E 15 30 8 16 - - 0.0
16/11:00am 16.7 13.3 5.9 49 5.3 ESE 13 26 7 14 - - 0.0
16/10:30am 15.9 12.6 6.3 53 4.7 E 13 24 7 13 - - 0.0
16/10:00am 15.8 13.0 7.0 56 4.4 E 11 20 6 11 - - 0.0
16/09:30am 14.8 11.3 7.1 60 3.8 E 15 30 8 16 - - 0.0
16/09:00am 14.1 11.6 8.3 68 2.9 ESE 11 19 6 10 - - 0.0
16/08:30am 12.9 11.3 8.6 75 2.2 ESE 7 13 4 7 - - 0.0
16/08:00am 9.3 7.6 7.4 88 0.9 SSE 6 9 3 5 - - 0.0
16/07:30am 6.6 4.8 5.6 93 0.4 SSE 4 7 2 4 - - 0.0
16/07:00am 4.5 3.1 3.5 93 0.4 CALM 0 0 0 0 - - 0.0
16/06:30am 3.5 1.9 2.3 92 0.5 CALM 0 0 0 0 - - 0.0
16/06:00am 3.8 2.2 2.6 92 0.5 CALM 0 0 0 0 - - 0.0
16/05:30am 4.5 2.7 3.3 92 0.5 S 2 6 1 3 - - 0.0
16/05:00am 4.0 2.5 2.8 92 0.5 CALM 0 0 0 0 - - 0.0
16/04:30am 4.4 2.9 3.1 91 0.5 CALM 0 0 0 0 - - 0.0
16/04:00am 5.1 3.4 3.8 91 0.6 SSE 2 6 1 3 - - 0.0
16/03:30am 5.9 4.3 4.4 90 0.7 S 2 7 1 4 - - 0.0
16/03:00am 6.3 4.0 4.8 90 0.7 SSE 6 9 3 5 - - 0.0
16/02:30am 6.0 4.0 4.5 90 0.7 SSE 4 7 2 4 - - 0.0
16/02:00am 6.0 4.8 4.5 90 0.7 CALM 0 7 0 4 - - 0.0
16/01:30am 6.4 5.2 4.6 88 0.8 CALM 0 0 0 0 - - 0.0
16/01:00am 6.8 5.2 4.6 86 1.0 SE 2 7 1 4 - - 0.0
16/12:30am 7.5 6.4 5.0 84 1.1 CALM 0 0 0 0 - - 0.0
16/12:00am 8.7 7.3 5.3 79 1.5 SSE 2 6 1 3 - - 0.0
 
Date/Time
WST
Temp
°C
App
Temp
°C
Dew
Point
Rel
Hum
%
Delta-T
°C
Wind Press
QNH
hPa
Press
MSL
hPa
Rain
since 9 am
mm
Dir
 
Spd
km/h
Gust
km/h
Spd
kts
Gust
kts
15/11:30pm 9.7 7.5 5.5 75 1.9 ESE 6 9 3 5 - - 0.0
15/11:00pm 10.4 8.1 5.6 72 2.2 SE 7 13 4 7 - - 0.0
15/10:30pm 10.7 8.4 5.7 71 2.3 SE 7 13 4 7 - - 0.0
15/10:00pm 11.1 8.9 6.0 71 2.4 SSE 7 15 4 8 - - 0.0
15/09:30pm 11.4 9.2 6.3 71 2.4 SSE 7 17 4 9 - - 0.0
15/09:00pm 11.5 8.9 6.2 70 2.5 SSE 9 17 5 9 - - 0.0
15/08:30pm 11.8 9.7 6.7 71 2.5 SSE 7 17 4 9 - - 0.0
15/08:00pm 10.6 9.5 7.1 79 1.7 SSE 2 7 1 4 - - 0.0
15/07:30pm 11.8 11.2 7.5 75 2.1 CALM 0 0 0 0 - - 0.0
15/07:00pm 13.4 12.5 7.6 68 2.9 SE 2 6 1 3 - - 0.0
15/06:30pm 15.1 13.7 7.4 60 3.8 SE 4 7 2 4 - - 0.0
15/06:00pm 16.1 15.0 7.1 55 4.5 SSE 2 9 1 5 - - 0.0
15/05:30pm 17.7 15.5 6.3 47 5.7 SSE 7 13 4 7 - - 0.0
15/05:00pm 18.9 16.9 6.4 44 6.3 SSE 6 13 3 7 - - 0.0
15/04:30pm 20.1 18.1 7.1 43 6.7 S 7 13 4 7 - - 0.0
15/04:00pm 20.2 18.5 5.8 39 7.2 W 4 9 2 5 - - 0.0
15/03:30pm 19.1 17.0 5.6 41 6.7 WSW 6 9 3 5 - - 0.0
15/03:00pm 19.4 17.5 6.8 44 6.4 W 6 11 3 6 - - 0.0
15/02:30pm 19.4 18.0 7.2 45 6.2 NNW 4 9 2 5 - - 0.0
15/02:00pm 17.9 16.8 7.0 49 5.5 SE 2 9 1 5 - - 0.0
15/01:30pm 19.0 17.2 8.1 49 5.7 SSE 7 13 4 7 - - 0.0
15/01:00pm 18.9 17.9 8.8 52 5.3 SSW 4 9 2 5 - - 0.0
15/12:30pm 17.6 16.1 8.5 55 4.7 S 6 11 3 6 - - 0.0
15/12:00pm 17.1 15.6 8.3 56 4.5 ESE 6 13 3 7 - - 0.0
15/11:30am 16.7 14.6 8.1 57 4.4 E 9 15 5 8 - - 0.0
15/11:00am 15.7 13.9 7.2 57 4.2 E 6 13 3 7 - - 0.0
15/10:30am 16.4 14.3 8.4 59 4.1 SE 9 15 5 8 - - 0.0
15/10:00am 15.4 13.0 7.2 58 4.1 ESE 9 15 5 8 - - 0.0
15/09:30am 14.6 12.1 6.7 59 3.9 ESE 9 19 5 10 - - 0.0
15/09:00am 14.3 11.7 7.6 64 3.3 SE 11 20 6 11 - - 0.0
15/08:30am 12.9 11.3 7.8 71 2.5 SSE 6 11 3 6 - - 0.0
15/08:00am 12.3 10.4 7.6 73 2.3 SSE 7 17 4 9 - - 0.0
15/07:30am 11.5 9.9 7.8 78 1.8 SSE 6 9 3 5 - - 0.0
15/07:00am 10.4 9.1 7.8 84 1.3 SE 4 7 2 4 - - 0.0
15/06:30am 10.1 9.6 7.7 85 1.2 CALM 0 0 0 0 - - 0.0
15/06:00am 10.3 9.7 7.5 83 1.4 CALM 0 0 0 0 - - 0.0
15/05:30am 10.6 9.7 7.7 82 1.4 SSE 2 7 1 4 - - 0.0
15/05:00am 11.1 9.5 7.8 80 1.6 SSE 6 11 3 6 - - 0.0
15/04:30am 11.5 9.8 8.5 82 1.5 SSE 7 15 4 8 - - 0.0
15/04:00am 11.6 10.3 9.3 86 1.2 SSE 6 13 3 7 - - 0.0
15/03:30am 11.5 10.4 9.8 89 0.9 SSE 6 9 3 5 - - 0.0
15/03:00am 11.3 10.9 9.7 90 0.8 SE 2 6 1 3 - - 0.0
15/02:30am 11.3 10.9 9.7 90 0.8 SE 2 9 1 5 - - 0.0
15/02:00am 11.5 11.1 9.8 89 0.9 S 2 7 1 4 - - 0.0
15/01:30am 11.9 12.0 10.1 89 0.9 CALM 0 0 0 0 - - 0.0
15/01:00am 11.9 10.8 10.0 88 1.0 ESE 6 9 3 5 - - 0.0
15/12:30am 12.4 11.7 10.1 86 1.2 SE 4 9 2 5 - - 0.0
15/12:00am 12.8 12.3 10.7 87 1.1 SSE 4 11 2 6 - - 0.0
 
Date/Time
WST
Temp
°C
App
Temp
°C
Dew
Point
Rel
Hum
%
Delta-T
°C
Wind Press
QNH
hPa
Press
MSL
hPa
Rain
since 9 am
mm
Dir
 
Spd
km/h
Gust
km/h
Spd
kts
Gust
kts
14/11:30pm 12.8 12.8 11.0 89 1.0 SE 2 7 1 4 - - 0.0
14/11:00pm 12.3 12.6 11.0 92 0.7 CALM 0 6 0 3 - - 0.0
14/10:30pm 11.9 11.7 10.5 91 0.7 ESE 2 6 1 3 - - 0.0
14/10:00pm 12.4 12.4 11.0 91 0.7 ESE 2 9 1 5 - - 0.0
14/09:30pm 12.6 13.0 11.2 91 0.7 CALM 0 0 0 0 - - 0.0

Other Formats:

Comma delimited format used in spreadsheet applications
http://www.bom.gov.au/fwo/IDW60801/IDW60801.95621.axf

JavaScript Object Notation format (JSON) in row-major order
http://www.bom.gov.au/fwo/IDW60801/IDW60801.95621.json